»·PEaware :: PAL102 RPLL-KLAX

PAL102 :: RPLL-KLAX

FLIGHT INFORMATION

Flight Status: Arrived
Operator:
Philippine Airlines
More flights by this operator :: More flights under this callsign
Pilot: Matthew M. (2702)
Aircraft: BOEING 777-300
(B773)
More flights by this aircraft type
Origin: RPLL Ninoy Aquino Intl
Philippines
Destination: KLAX Los Angeles Intl
United States
More flights between these airports :: More routes between these airports
Route: +JOM2B JOM A590 MUPOB A590 BUBDO Y83 BUNGU Y81 SYOYU Y809 KAGIS A590 PABBA OTR5 ADNAP OTR7 EMRON 4200N/16000E 4400N/17000E 4700N/18000E 4800N/17000W 4800N/16000W 4600N/15000W 4300N/14000W 3900N/13000W DACEM PAINT AVE SADDE6
File this flight plan on PilotEdge
Remarks: ENTERING ZLA AT AVE FL370, SQUAWKING 4160
Altitude:
(Current/Filed)
7,000ft
Speed:
(Current/Filed)
475kts
Departed: 20-Jun-16 06:23 PM
Arrived: 20-Jun-16 07:06 PM
Distance/Time
Traveled:
6335nm/0:42
Distance/Time
To Go:
Arrived

Flight Plot

Page will automatically refresh every two minutes.

Flight plan parsing failed; only flown route is shown


Map Options




Map Legend


Flown Route
Filed Route
Departure Airport
Arrival Airport
Navaid (VOR, NDB)
Fix

Horizontal Profiles

Position Reports

Time Latitude Longitude Heading Altitude Ground
Speed
20-Jun-16 18:19 36.288794 -121.394759 123 37063ft 481kts
20-Jun-16 18:20 36.223154 -121.247398 124 37055ft 489kts
20-Jun-16 18:21 36.157335 -121.100100 124 37041ft 488kts
20-Jun-16 18:22 36.091428 -120.953219 124 37031ft 487kts
20-Jun-16 18:23 36.025489 -120.806903 124 37024ft 486kts
20-Jun-16 18:24 35.959404 -120.660905 123 37021ft 484kts
20-Jun-16 18:25 35.893393 -120.515681 123 37020ft 484kts
20-Jun-16 18:26 35.827230 -120.370753 123 37017ft 484kts
20-Jun-16 18:27 35.761317 -120.226221 123 37015ft 484kts
20-Jun-16 18:28 35.694560 -120.081737 124 37012ft 484kts
20-Jun-16 18:29 35.617402 -119.948887 145 37007ft 470kts
20-Jun-16 18:30 35.514159 -119.863699 149 37008ft 468kts
20-Jun-16 18:31 35.407303 -119.771200 148 37038ft 469kts
20-Jun-16 18:32 35.300237 -119.679102 148 37051ft 469kts
20-Jun-16 18:33 35.193308 -119.586550 148 37052ft 469kts
20-Jun-16 18:34 35.085477 -119.495657 148 37061ft 470kts
20-Jun-16 18:35 34.977721 -119.404197 148 37060ft 468kts
20-Jun-16 18:36 34.876369 -119.317541 148 35839ft 422kts
20-Jun-16 18:37 34.773450 -119.230607 147 27236ft 491kts
20-Jun-16 18:38 34.667625 -119.140758 148 24168ft 405kts
20-Jun-16 18:39 34.576968 -119.076686 142 24228ft 379kts
20-Jun-16 18:40 34.491197 -119.000078 143 24176ft 380kts
20-Jun-16 18:41 34.408145 -118.923230 146 22025ft 380kts
20-Jun-16 18:42 34.322770 -118.868207 162 20145ft 329kts
20-Jun-16 18:43 34.238228 -118.837637 164 17926ft 305kts
20-Jun-16 18:44 34.157358 -118.808169 164 15326ft 301kts
20-Jun-16 18:45 34.077524 -118.779041 164 12796ft 297kts
20-Jun-16 18:46 34.031834 -118.708166 100 10387ft 301kts
20-Jun-16 18:47 34.024794 -118.611153 95 8927ft 267kts
20-Jun-16 18:48 34.016476 -118.523188 95 8073ft 263kts
20-Jun-16 18:49 34.012151 -118.435616 82 7219ft 266kts
20-Jun-16 18:50 34.021503 -118.348188 79 6332ft 255kts
20-Jun-16 18:51 34.031163 -118.262403 80 5219ft 257kts
20-Jun-16 18:52 34.039997 -118.183381 80 4991ft 213kts
20-Jun-16 18:52 34.047041 -118.120913 80 4681ft 239kts
20-Jun-16 18:54 34.029514 -118.044368 168 4008ft 203kts
20-Jun-16 18:54 33.991797 -118.054527 234 3906ft 163kts
20-Jun-16 18:55 33.982862 -118.103418 262 3988ft 142kts
20-Jun-16 18:56 33.977806 -118.151274 264 4000ft 142kts
20-Jun-16 18:58 33.972877 -118.199174 263 3381ft 140kts
20-Jun-16 18:59 33.968071 -118.246061 262 2642ft 141kts
20-Jun-16 19:00 33.963261 -118.293047 262 1897ft 141kts
20-Jun-16 19:01 33.958501 -118.339532 262 1146ft 135kts
20-Jun-16 19:02 33.953785 -118.385544 262 416ft 137kts
20-Jun-16 19:03 33.950374 -118.417470 247 140ft 36kts
20-Jun-16 19:04 33.949352 -118.419345 233 140ft 3kts
20-Jun-16 19:05 33.947208 -118.422734 205 140ft 3kts
20-Jun-16 19:06 33.946954 -118.422569 109 140ft 0kts
20-Jun-16 19:07 33.946886 -118.421979 86 140ft 17kts
20-Jun-16 19:08 33.947506 -118.415603 83 140ft 20kts
20-Jun-16 19:09 33.947065 -118.413011 177 140ft 1kts
20-Jun-16 19:10 33.947047 -118.413010 177 140ft 0kts
20-Jun-16 19:11 33.947045 -118.413010 177 140ft 0kts
20-Jun-16 19:12 33.945085 -118.412713 171 139ft 26kts
20-Jun-16 19:13 33.939160 -118.411606 139 139ft 26kts
20-Jun-16 19:14 33.940415 -118.409362 259 139ft 0kts
20-Jun-16 19:15 33.940414 -118.409365 259 139ft 0kts
20-Jun-16 19:16 33.940414 -118.409367 259 139ft 0kts
20-Jun-16 19:17 33.940414 -118.409370 259 139ft 0kts

Navigation Log

Ident Type
Flight plan parsing failed, navigation log unavailable